createdAt,value
2022-12-16T00:01:27.869Z,15.10
2022-12-16T00:03:58.437Z,12.00
2022-12-16T00:06:31.178Z,13.77
2022-12-16T00:08:59.661Z,14.67
2022-12-16T00:11:27.349Z,14.17
2022-12-16T00:13:55.114Z,13.70
2022-12-16T00:16:22.654Z,13.27
2022-12-16T00:18:51.821Z,13.73
2022-12-16T00:21:19.637Z,12.97
2022-12-16T00:23:47.299Z,13.87
2022-12-16T00:26:14.714Z,13.47
2022-12-16T00:28:43.684Z,13.93
2022-12-16T00:31:10.906Z,12.90
2022-12-16T00:33:37.942Z,12.93
2022-12-16T00:36:05.378Z,13.03
2022-12-16T00:38:32.685Z,14.33
2022-12-16T00:41:00.040Z,12.63
2022-12-16T00:43:26.910Z,12.37
2022-12-16T00:45:53.853Z,12.67
2022-12-16T00:48:23.964Z,12.23
2022-12-16T00:50:55.209Z,12.47
2022-12-16T00:53:24.986Z,13.43
2022-12-16T00:56:01.838Z,12.43
2022-12-16T00:58:28.958Z,12.50
2022-12-16T01:00:55.914Z,12.63
2022-12-16T01:03:23.068Z,12.27
2022-12-16T01:05:50.479Z,13.30
2022-12-16T01:08:17.831Z,10.70
2022-12-16T01:10:52.381Z,12.10
2022-12-16T01:13:20.644Z,12.30
2022-12-16T01:15:47.583Z,11.40
2022-12-16T01:18:15.256Z,11.80
2022-12-16T01:20:42.542Z,10.47
2022-12-16T01:23:10.172Z,12.03
2022-12-16T01:25:37.511Z,12.47
2022-12-16T01:28:04.468Z,12.50
2022-12-16T01:30:31.695Z,12.90
2022-12-16T01:32:58.702Z,12.63
2022-12-16T01:35:52.191Z,13.27
2022-12-16T01:38:13.084Z,12.17
2022-12-16T01:40:39.961Z,12.17
2022-12-16T01:43:14.175Z,11.13
2022-12-16T01:45:41.204Z,12.83
2022-12-16T01:48:36.181Z,12.93
2022-12-16T01:51:14.318Z,12.10
2022-12-16T01:53:43.097Z,12.23
2022-12-16T01:56:13.755Z,12.33
2022-12-16T01:58:42.808Z,12.50
2022-12-16T02:01:10.292Z,10.87
2022-12-16T02:03:38.086Z,13.00
2022-12-16T02:06:07.343Z,11.00
2022-12-16T02:08:35.105Z,12.80
2022-12-16T02:11:15.362Z,12.03
2022-12-16T02:14:09.797Z,11.57
2022-12-16T02:16:47.723Z,10.70
2022-12-16T02:19:42.329Z,12.00
2022-12-16T02:22:45.847Z,11.93
2022-12-16T02:25:19.094Z,12.07
2022-12-16T02:28:02.711Z,11.07
2022-12-16T02:31:04.915Z,12.67
2022-12-16T02:33:43.702Z,12.25
2022-12-16T02:36:25.070Z,11.70
2022-12-16T02:39:23.223Z,12.57
2022-12-16T02:42:11.383Z,12.73
2022-12-16T02:44:57.511Z,12.33
2022-12-16T02:47:25.058Z,12.57
2022-12-16T02:49:55.062Z,11.90
2022-12-16T02:52:29.967Z,13.63
2022-12-16T02:55:02.156Z,12.57
2022-12-16T02:57:47.723Z,13.00
2022-12-16T03:00:21.289Z,12.20
2022-12-16T03:03:05.790Z,12.20
2022-12-16T03:05:38.321Z,11.43
2022-12-16T03:08:12.298Z,13.30
2022-12-16T03:10:50.025Z,12.90
2022-12-16T03:13:19.893Z,12.50
2022-12-16T03:15:49.952Z,11.50
2022-12-16T03:18:18.365Z,12.13
2022-12-16T03:21:04.068Z,12.63
2022-12-16T03:23:44.707Z,12.23
2022-12-16T03:26:32.331Z,12.07
2022-12-16T03:29:05.651Z,13.87
2022-12-16T03:31:52.257Z,12.90
2022-12-16T03:34:40.549Z,13.10
2022-12-16T03:37:13.281Z,13.73
2022-12-16T03:39:50.050Z,14.57
2022-12-16T03:42:17.048Z,14.00
2022-12-16T03:44:46.493Z,14.23
2022-12-16T03:47:18.356Z,14.10
2022-12-16T03:49:48.624Z,15.27
2022-12-16T03:52:16.273Z,14.80
2022-12-16T03:54:43.165Z,18.40
2022-12-16T03:57:15.011Z,28.37
2022-12-16T03:59:42.654Z,33.63
2022-12-16T04:02:09.754Z,26.50
2022-12-16T04:04:36.774Z,22.10
2022-12-16T04:07:22.189Z,53.43
2022-12-16T04:09:50.467Z,36.67
2022-12-16T04:12:36.810Z,25.50
2022-12-16T04:15:24.420Z,23.50
2022-12-16T04:18:10.189Z,25.77
2022-12-16T04:21:00.999Z,22.70
2022-12-16T04:23:48.293Z,17.77
2022-12-16T04:26:15.437Z,19.20
2022-12-16T04:28:42.389Z,16.67
2022-12-16T04:31:09.859Z,14.57
2022-12-16T04:33:55.719Z,16.53
2022-12-16T04:36:41.133Z,16.33
2022-12-16T04:39:27.033Z,14.57
2022-12-16T04:42:13.835Z,13.77
2022-12-16T04:44:59.695Z,14.27
2022-12-16T04:47:45.595Z,14.27
2022-12-16T04:50:30.886Z,15.37
2022-12-16T04:53:17.077Z,13.27
2022-12-16T04:56:04.709Z,14.60
2022-12-16T04:58:50.870Z,14.20
2022-12-16T05:01:36.778Z,13.90
2022-12-16T05:04:22.765Z,14.93
2022-12-16T05:07:07.946Z,14.10
2022-12-16T05:09:53.650Z,15.53
2022-12-16T05:12:39.527Z,14.10
2022-12-16T05:15:25.562Z,13.50
2022-12-16T05:18:11.371Z,13.80
2022-12-16T05:20:57.049Z,13.00
2022-12-16T05:23:42.236Z,13.13
2022-12-16T05:26:32.507Z,14.07
2022-12-16T05:29:17.810Z,13.57
2022-12-16T05:32:03.466Z,12.97
2022-12-16T05:34:49.225Z,12.60
2022-12-16T05:37:35.034Z,11.47
2022-12-16T05:40:21.060Z,13.33
2022-12-16T05:43:13.376Z,13.57
2022-12-16T05:46:02.523Z,13.47
2022-12-16T05:48:48.603Z,12.00
2022-12-16T05:51:34.423Z,14.37
2022-12-16T05:54:20.257Z,11.97
2022-12-16T05:57:05.293Z,13.33
2022-12-16T05:59:51.401Z,13.53
2022-12-16T06:02:38.404Z,11.37
2022-12-16T06:05:24.456Z,10.97
2022-12-16T06:08:11.774Z,11.90
2022-12-16T06:10:57.837Z,11.63
2022-12-16T06:13:42.994Z,10.13
2022-12-16T06:16:28.860Z,10.93
2022-12-16T06:19:14.032Z,10.77
2022-12-16T06:21:59.812Z,10.57
2022-12-16T06:24:45.020Z,10.40
2022-12-16T06:27:30.886Z,10.73
2022-12-16T06:30:16.700Z,10.80
2022-12-16T06:33:02.538Z,12.77
2022-12-16T06:35:47.852Z,11.90
2022-12-16T06:38:33.561Z,12.00
2022-12-16T06:41:18.769Z,12.03
2022-12-16T06:44:04.597Z,12.80
2022-12-16T06:46:50.516Z,12.13
2022-12-16T06:49:36.134Z,13.13
2022-12-16T06:52:22.094Z,15.90
2022-12-16T06:55:08.172Z,10.30
2022-12-16T06:57:54.022Z,13.77
2022-12-16T07:00:39.863Z,12.10
2022-12-16T07:03:25.193Z,12.27
2022-12-16T07:06:14.388Z,12.07
2022-12-16T07:08:59.533Z,12.63
2022-12-16T07:11:45.396Z,10.27
2022-12-16T07:14:31.476Z,10.60
2022-12-16T07:17:17.831Z,11.57
2022-12-16T07:20:03.837Z,10.33
2022-12-16T07:22:58.438Z,9.50
2022-12-16T07:25:48.398Z,8.90
2022-12-16T07:28:34.256Z,11.23
2022-12-16T07:31:20.242Z,9.67
2022-12-16T07:34:06.244Z,9.30
2022-12-16T07:36:52.048Z,8.93
2022-12-16T07:39:37.713Z,8.83
2022-12-16T07:42:23.737Z,9.40
2022-12-16T07:45:09.690Z,8.73
2022-12-16T07:47:55.810Z,8.73
2022-12-16T07:50:41.555Z,9.17
2022-12-16T07:53:31.320Z,9.90
2022-12-16T07:56:17.406Z,9.00
2022-12-16T07:59:03.654Z,8.07
2022-12-16T08:01:49.390Z,10.70
2022-12-16T08:04:35.380Z,10.30
2022-12-16T08:07:21.211Z,9.07
2022-12-16T08:10:06.533Z,8.50
2022-12-16T08:12:52.394Z,9.33
2022-12-16T08:15:38.171Z,8.70
2022-12-16T08:18:24.089Z,9.40
2022-12-16T08:21:09.473Z,9.63
2022-12-16T08:23:55.320Z,10.43
2022-12-16T08:26:41.529Z,10.43
2022-12-16T08:29:43.877Z,9.33
2022-12-16T08:32:41.998Z,8.83
2022-12-16T08:35:31.135Z,10.97
2022-12-16T08:38:16.638Z,11.23
2022-12-16T08:41:03.589Z,11.17
2022-12-16T08:43:52.084Z,9.60
2022-12-16T08:46:38.555Z,9.03
2022-12-16T08:49:24.294Z,10.10
2022-12-16T08:52:10.197Z,10.87
2022-12-16T08:54:56.110Z,9.63
2022-12-16T08:57:42.477Z,9.43
2022-12-16T09:00:29.379Z,9.50
2022-12-16T09:03:18.815Z,11.60
2022-12-16T09:06:04.318Z,9.10
2022-12-16T09:08:50.262Z,10.97
2022-12-16T09:11:36.068Z,10.33
2022-12-16T09:14:21.921Z,11.47
2022-12-16T09:17:07.769Z,11.83
2022-12-16T09:19:55.352Z,10.10
2022-12-16T09:22:41.390Z,9.53
2022-12-16T09:25:27.229Z,10.47
2022-12-16T09:28:12.527Z,10.00
2022-12-16T09:30:58.470Z,9.60
2022-12-16T09:33:44.530Z,10.13
2022-12-16T09:36:30.574Z,11.97
2022-12-16T09:39:15.933Z,11.27
2022-12-16T09:42:17.954Z,11.17
2022-12-16T09:45:30.079Z,10.65
2022-12-16T09:48:22.541Z,10.37
2022-12-16T09:51:32.757Z,9.55
2022-12-16T09:54:22.450Z,10.00
2022-12-16T09:57:08.038Z,11.07
2022-12-16T09:59:58.047Z,9.20
2022-12-16T10:02:45.280Z,10.33
2022-12-16T10:05:41.954Z,11.00
2022-12-16T10:08:55.380Z,10.73
2022-12-16T10:12:13.384Z,8.50
2022-12-16T10:15:31.618Z,9.10
2022-12-16T10:18:21.544Z,8.23
2022-12-16T10:21:12.393Z,9.70
2022-12-16T10:24:12.400Z,9.60
2022-12-16T10:27:33.671Z,8.90
2022-12-16T10:30:22.050Z,8.43
2022-12-16T10:33:10.480Z,11.17
2022-12-16T10:36:07.956Z,8.90
2022-12-16T10:39:20.121Z,8.23
2022-12-16T10:42:10.570Z,8.60
2022-12-16T10:45:13.821Z,7.43
2022-12-16T10:47:59.750Z,10.53
2022-12-16T10:50:46.265Z,10.17
2022-12-16T10:53:33.636Z,11.00
2022-12-16T10:56:58.489Z,11.83
2022-12-16T10:59:57.993Z,9.30
2022-12-16T11:02:51.095Z,10.17
2022-12-16T11:05:52.684Z,9.97
2022-12-16T11:08:49.461Z,8.83
2022-12-16T11:11:48.147Z,9.23
2022-12-16T11:14:50.308Z,10.10
2022-12-16T11:17:46.864Z,9.27
2022-12-16T11:20:40.384Z,7.77
2022-12-16T11:23:41.305Z,8.60
2022-12-16T11:26:38.508Z,10.37
2022-12-16T11:29:35.610Z,9.90
2022-12-16T11:32:44.184Z,9.00
2022-12-16T11:35:36.097Z,9.63
2022-12-16T11:38:39.163Z,10.40
2022-12-16T11:41:37.195Z,13.53
2022-12-16T11:44:23.811Z,8.47
2022-12-16T11:47:09.238Z,9.67
2022-12-16T11:49:54.902Z,9.03
2022-12-16T11:52:41.755Z,9.57
2022-12-16T11:56:06.476Z,8.17
2022-12-16T11:58:55.358Z,8.70
2022-12-16T12:02:14.333Z,9.13
2022-12-16T12:05:04.167Z,8.77
2022-12-16T12:08:16.339Z,9.20
2022-12-16T12:11:42.681Z,8.82
2022-12-16T12:15:01.236Z,7.67
2022-12-16T12:18:05.325Z,7.53
2022-12-16T12:21:04.980Z,9.83
2022-12-16T12:24:09.091Z,9.33
2022-12-16T12:27:03.689Z,8.30
2022-12-16T12:30:25.457Z,8.80
2022-12-16T12:33:36.725Z,5.77
2022-12-16T12:36:53.969Z,9.20
2022-12-16T12:40:04.934Z,8.63
2022-12-16T12:43:13.928Z,7.67
2022-12-16T12:46:13.165Z,9.33
2022-12-16T12:49:42.450Z,8.53
2022-12-16T12:52:57.384Z,9.60
2022-12-16T12:55:57.560Z,8.43
2022-12-16T12:58:52.142Z,9.40
2022-12-16T13:01:45.950Z,10.97
2022-12-16T13:04:41.196Z,9.13
2022-12-16T13:07:28.045Z,11.50
2022-12-16T13:10:55.764Z,8.97
2022-12-16T13:13:51.021Z,10.27
2022-12-16T13:17:02.818Z,11.07
2022-12-16T13:19:48.208Z,8.57
2022-12-16T13:22:47.665Z,11.00
2022-12-16T13:26:10.621Z,10.10
2022-12-16T13:29:01.869Z,9.95
2022-12-16T13:31:49.075Z,9.30
2022-12-16T13:34:34.899Z,10.30
2022-12-16T13:37:28.376Z,10.90
2022-12-16T13:40:41.215Z,8.10
2022-12-16T13:44:11.280Z,11.70
2022-12-16T13:47:12.130Z,11.60
2022-12-16T13:50:06.529Z,11.33
2022-12-16T13:53:16.648Z,6.50
2022-12-16T13:56:18.183Z,10.73
2022-12-16T13:59:18.827Z,10.87
2022-12-16T14:02:13.410Z,11.60
2022-12-16T14:05:04.143Z,7.13
2022-12-16T14:07:53.087Z,9.50
2022-12-16T14:10:52.660Z,10.07
2022-12-16T14:13:54.840Z,10.03
2022-12-16T14:17:10.238Z,9.60
2022-12-16T14:20:28.497Z,11.13
2022-12-16T14:23:58.636Z,7.90
2022-12-16T14:26:45.351Z,13.50
2022-12-16T14:29:46.649Z,10.33
2022-12-16T14:32:51.886Z,10.10
2022-12-16T14:35:44.462Z,11.20
2022-12-16T14:38:42.682Z,10.95
2022-12-16T14:41:46.758Z,10.03
2022-12-16T14:44:40.035Z,11.07
2022-12-16T14:47:32.345Z,10.80
2022-12-16T14:50:38.167Z,10.43
2022-12-16T14:53:42.218Z,10.50
2022-12-16T14:56:41.492Z,9.80
2022-12-16T14:59:38.651Z,10.70
2022-12-16T15:02:56.805Z,10.60
2022-12-16T15:05:52.066Z,12.33
2022-12-16T15:08:40.289Z,12.30
2022-12-16T15:11:31.128Z,11.27
2022-12-16T15:14:19.440Z,10.70
2022-12-16T15:17:10.075Z,10.00
2022-12-16T15:20:10.263Z,8.83
2022-12-16T15:22:56.958Z,9.07
2022-12-16T15:25:45.482Z,10.07
2022-12-16T15:28:59.449Z,9.90
2022-12-16T15:31:51.400Z,8.90
2022-12-16T15:35:09.573Z,9.35
2022-12-16T15:38:04.110Z,9.13
2022-12-16T15:40:53.403Z,7.73
2022-12-16T15:43:46.813Z,7.70
2022-12-16T15:46:47.117Z,7.63
2022-12-16T15:49:42.103Z,8.37
2022-12-16T15:52:52.595Z,8.07
2022-12-16T15:55:57.044Z,8.43
2022-12-16T15:58:49.168Z,7.53
2022-12-16T16:01:42.339Z,9.10
2022-12-16T16:04:45.796Z,7.97
2022-12-16T16:07:40.478Z,8.80
2022-12-16T16:10:42.802Z,8.67
2022-12-16T16:13:29.231Z,9.27
2022-12-16T16:16:15.235Z,8.07
2022-12-16T16:19:02.093Z,10.10
2022-12-16T16:21:48.682Z,10.83
2022-12-16T16:24:34.739Z,9.33
2022-12-16T16:27:22.171Z,9.83
2022-12-16T16:30:07.558Z,8.70
2022-12-16T16:32:53.524Z,9.77
2022-12-16T16:35:42.425Z,8.60
2022-12-16T16:38:31.765Z,8.70
2022-12-16T16:41:17.873Z,10.77
2022-12-16T16:44:04.008Z,10.70
2022-12-16T16:46:59.143Z,8.53
2022-12-16T16:49:48.790Z,8.63
2022-12-16T16:52:38.509Z,8.57
2022-12-16T16:55:25.884Z,9.53
2022-12-16T16:58:11.647Z,9.53
2022-12-16T17:00:57.614Z,10.10
2022-12-16T17:03:43.672Z,10.17
2022-12-16T17:06:30.012Z,10.47
2022-12-16T17:09:15.769Z,9.60
2022-12-16T17:12:01.860Z,9.37
2022-12-16T17:14:47.374Z,8.83
2022-12-16T17:17:33.239Z,9.03
2022-12-16T17:20:19.391Z,9.70
2022-12-16T17:23:07.868Z,9.77
2022-12-16T17:25:54.129Z,10.90
2022-12-16T17:28:42.060Z,8.63
2022-12-16T17:31:28.806Z,8.73
2022-12-16T17:34:14.777Z,11.47
2022-12-16T17:37:00.845Z,11.20
2022-12-16T17:39:46.713Z,9.67
2022-12-16T17:42:32.496Z,9.90
2022-12-16T17:45:18.535Z,11.83
2022-12-16T17:48:04.518Z,12.80
2022-12-16T17:50:50.168Z,12.70
2022-12-16T17:53:36.616Z,11.43
2022-12-16T17:56:24.463Z,13.03
2022-12-16T17:59:11.320Z,12.03
2022-12-16T18:01:57.457Z,12.53
2022-12-16T18:04:43.683Z,14.63
2022-12-16T18:07:29.512Z,12.43
2022-12-16T18:10:14.981Z,13.13
2022-12-16T18:13:05.398Z,12.00
2022-12-16T18:15:50.761Z,12.87
2022-12-16T18:18:39.333Z,14.23
2022-12-16T18:21:32.939Z,14.10
2022-12-16T18:24:18.771Z,12.30
2022-12-16T18:27:04.097Z,11.83
2022-12-16T18:29:49.691Z,11.50
2022-12-16T18:32:35.579Z,12.07
2022-12-16T18:35:21.930Z,11.33
2022-12-16T18:38:10.027Z,12.33
2022-12-16T18:40:58.182Z,10.70
2022-12-16T18:43:43.518Z,10.53
2022-12-16T18:46:29.393Z,12.40
2022-12-16T18:49:14.563Z,12.77
2022-12-16T18:52:00.357Z,12.60
2022-12-16T18:54:45.899Z,14.03
2022-12-16T18:57:36.419Z,11.60
2022-12-16T19:00:26.524Z,9.30
2022-12-16T19:03:12.460Z,9.50
2022-12-16T19:05:57.796Z,9.10
2022-12-16T19:08:43.614Z,9.47
2022-12-16T19:11:29.582Z,10.33
2022-12-16T19:14:15.492Z,10.07
2022-12-16T19:17:00.727Z,11.10
2022-12-16T19:19:46.842Z,10.23
2022-12-16T19:22:32.000Z,9.87
2022-12-16T19:25:17.831Z,8.37
2022-12-16T19:28:03.393Z,8.63
2022-12-16T19:30:49.125Z,11.27
2022-12-16T19:33:35.099Z,9.13
2022-12-16T19:36:20.866Z,9.40
2022-12-16T19:39:06.164Z,10.20
2022-12-16T19:41:52.193Z,11.20
2022-12-16T19:44:38.319Z,10.07
2022-12-16T19:47:24.143Z,9.00
2022-12-16T19:50:09.483Z,9.17
2022-12-16T19:52:55.988Z,9.67
2022-12-16T19:55:42.272Z,10.93
2022-12-16T19:58:28.062Z,10.20
2022-12-16T20:01:13.554Z,10.60
2022-12-16T20:03:59.622Z,16.00
2022-12-16T20:06:44.915Z,10.53
2022-12-16T20:09:30.691Z,10.90
2022-12-16T20:12:27.722Z,12.67
2022-12-16T20:15:13.381Z,10.43
2022-12-16T20:18:00.226Z,10.37
2022-12-16T20:20:46.295Z,11.40
2022-12-16T20:23:32.348Z,10.03
2022-12-16T20:26:20.383Z,9.60
2022-12-16T20:29:06.765Z,10.37
2022-12-16T20:31:53.365Z,11.70
2022-12-16T20:34:41.989Z,10.47
2022-12-16T20:37:27.839Z,11.53
2022-12-16T20:40:13.358Z,11.17
2022-12-16T20:42:59.219Z,9.90
2022-12-16T20:45:45.329Z,10.83
2022-12-16T20:48:35.553Z,11.07
2022-12-16T20:51:26.794Z,11.47
2022-12-16T20:54:12.876Z,9.73
2022-12-16T20:57:01.048Z,10.00
2022-12-16T20:59:46.457Z,9.90
2022-12-16T21:05:38.366Z,10.67
2022-12-16T21:08:24.540Z,10.23
2022-12-16T21:11:15.344Z,9.13
2022-12-16T21:14:00.728Z,10.00
2022-12-16T21:16:46.624Z,10.30
2022-12-16T21:19:33.837Z,8.97
2022-12-16T21:22:19.814Z,10.30
2022-12-16T21:25:05.823Z,8.73
2022-12-16T21:27:52.011Z,8.87
2022-12-16T21:30:38.355Z,10.67
2022-12-16T21:33:24.171Z,10.63
2022-12-16T21:36:13.411Z,11.23
2022-12-16T21:38:59.200Z,10.37
2022-12-16T21:41:45.480Z,10.03
2022-12-16T21:44:31.391Z,10.40
2022-12-16T21:47:17.157Z,10.07
2022-12-16T21:50:02.559Z,8.97
2022-12-16T21:52:48.055Z,8.73
2022-12-16T21:55:34.015Z,9.30
2022-12-16T21:58:19.941Z,9.30
2022-12-16T22:01:13.775Z,9.63
2022-12-16T22:03:59.689Z,9.70
2022-12-16T22:06:48.855Z,9.70
2022-12-16T22:09:35.164Z,9.43
2022-12-16T22:12:21.309Z,9.27
2022-12-16T22:15:06.694Z,8.97
2022-12-16T22:17:58.047Z,8.37
2022-12-16T22:20:45.168Z,10.25
2022-12-16T22:23:31.340Z,9.90
2022-12-16T22:26:19.315Z,8.53
2022-12-16T22:29:05.284Z,9.20
2022-12-16T22:31:50.600Z,9.33
2022-12-16T22:34:36.598Z,9.70
2022-12-16T22:37:22.453Z,9.50
2022-12-16T22:40:08.248Z,9.87
2022-12-16T22:42:56.251Z,10.53
2022-12-16T22:45:42.384Z,9.03
2022-12-16T22:48:31.538Z,9.90
2022-12-16T22:51:17.273Z,9.97
2022-12-16T22:54:02.588Z,9.87
2022-12-16T22:56:48.613Z,9.57
2022-12-16T22:59:34.527Z,8.77
2022-12-16T23:02:20.455Z,9.60
2022-12-16T23:05:06.265Z,9.00
2022-12-16T23:07:53.166Z,10.37
2022-12-16T23:10:39.290Z,8.67
2022-12-16T23:13:25.178Z,9.93
2022-12-16T23:16:10.977Z,11.13
2022-12-16T23:18:56.831Z,9.20
2022-12-16T23:21:42.743Z,10.40
2022-12-16T23:24:30.041Z,8.33
2022-12-16T23:27:16.070Z,9.93
2022-12-16T23:30:01.935Z,10.10
2022-12-16T23:32:48.026Z,11.20
2022-12-16T23:35:34.037Z,10.03
2022-12-16T23:38:25.567Z,10.93
2022-12-16T23:41:18.161Z,18.13
2022-12-16T23:44:04.767Z,20.75
2022-12-16T23:46:50.594Z,17.03
2022-12-16T23:49:35.940Z,9.73
2022-12-16T23:52:21.991Z,11.20
2022-12-16T23:55:07.376Z,10.27
2022-12-16T23:57:53.113Z,11.77
